Time;durP1;ratioP1;P1;durP2;ratioP2;P2;SDS_P1;SDS_P2;PMS_P1;PMS_P2;Temp;Humidity;BMP_temperature;BMP_pressure;BME280_temperature;BME280_humidity;BME280_pressure;Samples;Min_cycle;Max_cycle;Signal;HPM_P1;HPM_P2
2023/11/03 00:00:07;;;;;;;2.13;0.90;;;9.40;99.90;;;;;;5033578;28;20264;-60
2023/11/03 00:02:37;;;;;;;2.87;0.97;;;9.40;99.90;;;;;;5033694;28;20202;-60
2023/11/03 00:05:08;;;;;;;3.40;0.80;;;9.30;99.90;;;;;;5033422;28;20222;-60
2023/11/03 00:07:35;;;;;;;3.00;0.67;;;9.30;99.90;;;;;;5033458;28;20291;-60
2023/11/03 00:10:05;;;;;;;2.30;0.90;;;9.30;99.90;;;;;;5033391;28;20256;-60
2023/11/03 00:12:32;;;;;;;2.50;0.97;;;9.10;99.90;;;;;;5033247;28;20293;-60
2023/11/03 00:14:58;;;;;;;1.73;0.87;;;9.10;99.90;;;;;;5033369;28;20237;-60
2023/11/03 00:17:25;;;;;;;1.10;0.70;;;9.00;99.90;;;;;;5033601;28;20244;-60
2023/11/03 00:19:53;;;;;;;1.97;0.90;;;9.00;99.90;;;;;;5033297;28;20207;-60
2023/11/03 00:22:20;;;;;;;2.90;1.00;;;8.90;99.90;;;;;;5024915;28;20209;-60
2023/11/03 00:24:47;;;;;;;2.13;1.10;;;8.90;99.90;;;;;;5033012;28;20256;-60
2023/11/03 00:27:14;;;;;;;2.47;1.10;;;8.90;99.90;;;;;;5033300;28;20230;-60
2023/11/03 00:29:41;;;;;;;1.87;1.00;;;8.90;99.90;;;;;;5033411;28;20213;-60
2023/11/03 00:32:08;;;;;;;3.23;1.13;;;8.80;99.90;;;;;;5033036;28;20294;-60
2023/11/03 00:34:34;;;;;;;1.80;0.87;;;8.80;99.90;;;;;;5033060;28;20316;-59
2023/11/03 00:37:03;;;;;;;4.00;0.70;;;8.80;99.90;;;;;;5032997;28;20791;-60
2023/11/03 00:39:29;;;;;;;3.40;1.13;;;8.80;99.90;;;;;;5032841;28;20289;-60
2023/11/03 00:41:56;;;;;;;2.50;0.90;;;8.70;99.90;;;;;;5032947;28;20213;-60
2023/11/03 00:44:25;;;;;;;3.07;1.00;;;8.70;99.90;;;;;;5033103;28;20229;-60
2023/11/03 00:46:52;;;;;;;3.53;1.50;;;8.60;99.90;;;;;;5033046;28;20308;-60
2023/11/03 00:49:19;;;;;;;3.43;1.80;;;8.60;99.90;;;;;;5032820;28;20202;-60
2023/11/03 00:51:46;;;;;;;5.10;1.40;;;8.50;99.90;;;;;;5032503;28;20642;-60
2023/11/03 00:54:14;;;;;;;3.60;1.10;;;8.50;99.90;;;;;;5032619;28;20233;-59
2023/11/03 00:56:41;;;;;;;3.27;1.20;;;8.50;99.90;;;;;;5032821;28;20206;-60
2023/11/03 00:59:08;;;;;;;2.00;1.00;;;8.40;99.90;;;;;;5032595;28;20680;-60
2023/11/03 01:01:35;;;;;;;2.90;1.10;;;8.40;99.90;;;;;;5032520;28;20293;-59
2023/11/03 01:04:02;;;;;;;2.33;0.80;;;8.40;99.90;;;;;;5032446;28;20260;-62
2023/11/03 01:06:28;;;;;;;4.23;1.30;;;8.40;99.90;;;;;;5032518;28;20202;-62
2023/11/03 01:08:55;;;;;;;1.87;0.80;;;8.40;99.90;;;;;;5032366;28;20206;-61
2023/11/03 01:11:24;;;;;;;3.60;0.93;;;8.30;99.90;;;;;;5024445;28;20202;-61
2023/11/03 01:13:50;;;;;;;5.63;1.20;;;8.30;99.90;;;;;;5032386;28;20258;-61
2023/11/03 01:16:18;;;;;;;3.43;1.40;;;8.10;99.90;;;;;;5032364;28;20198;-61
2023/11/03 01:18:45;;;;;;;1.20;0.90;;;8.10;99.90;;;;;;5032241;28;20203;-61
2023/11/03 01:21:15;;;;;;;1.53;1.10;;;8.00;99.90;;;;;;5032177;28;20301;-61
2023/11/03 01:23:42;;;;;;;3.57;1.33;;;8.00;99.90;;;;;;5032454;28;20226;-60
2023/11/03 01:26:09;;;;;;;3.20;1.50;;;7.90;99.90;;;;;;5032284;28;20202;-61
2023/11/03 01:28:37;;;;;;;1.87;1.40;;;7.90;99.90;;;;;;5032032;28;20222;-61
2023/11/03 01:31:05;;;;;;;2.53;1.10;;;7.90;99.90;;;;;;5032030;28;20210;-61
2023/11/03 01:33:32;;;;;;;3.93;1.20;;;7.90;99.90;;;;;;5031239;28;20222;-61
2023/11/03 01:35:59;;;;;;;3.47;1.07;;;7.90;99.90;;;;;;5032090;28;20214;-61
2023/11/03 01:38:25;;;;;;;4.83;1.13;;;8.00;99.90;;;;;;5032295;28;20210;-61
2023/11/03 01:40:53;;;;;;;2.77;1.07;;;8.10;99.90;;;;;;5032329;28;20233;-61
2023/11/03 01:43:20;;;;;;;2.80;1.10;;;8.10;99.90;;;;;;5031370;28;20218;-61
2023/11/03 01:45:48;;;;;;;5.27;1.80;;;8.20;99.90;;;;;;5031763;28;20679;-61
2023/11/03 01:48:15;;;;;;;2.30;1.10;;;8.30;99.90;;;;;;5031660;28;20305;-61
2023/11/03 01:50:42;;;;;;;4.17;1.40;;;8.40;99.90;;;;;;5031650;28;20676;-61
2023/11/03 01:53:09;;;;;;;2.70;1.00;;;8.50;99.90;;;;;;5031328;28;20293;-61
2023/11/03 01:55:36;;;;;;;5.63;1.30;;;8.60;99.90;;;;;;5031762;28;20301;-62
2023/11/03 01:58:03;;;;;;;5.30;1.30;;;8.70;99.90;;;;;;5031518;28;20221;-62
2023/11/03 02:00:30;;;;;;;2.03;0.90;;;8.70;99.90;;;;;;5031543;28;20198;-60
2023/11/03 02:02:58;;;;;;;4.53;1.10;;;8.60;99.90;;;;;;5031504;28;20214;-60
2023/11/03 02:05:25;;;;;;;2.30;1.40;;;8.40;99.90;;;;;;5031787;28;20210;-62
2023/11/03 02:07:52;;;;;;;2.87;1.23;;;8.30;99.90;;;;;;5031217;28;20226;-61
2023/11/03 02:10:19;;;;;;;6.63;1.30;;;8.20;99.90;;;;;;5031250;28;20206;-61
2023/11/03 02:12:45;;;;;;;3.50;1.10;;;8.00;99.90;;;;;;5031183;28;20293;-61
2023/11/03 02:15:12;;;;;;;1.97;1.00;;;8.00;99.90;;;;;;5030970;28;20233;-61
2023/11/03 02:17:39;;;;;;;2.00;1.00;;;8.00;99.90;;;;;;5031781;28;20201;-61
2023/11/03 02:20:09;;;;;;;4.90;2.00;;;7.90;99.90;;;;;;5031081;28;20698;-61
2023/11/03 02:22:38;;;;;;;4.23;0.90;;;7.90;99.90;;;;;;5031212;28;20199;-61
2023/11/03 02:25:08;;;;;;;5.70;1.17;;;7.80;99.90;;;;;;5031114;28;20230;-60
2023/11/03 02:27:35;;;;;;;3.43;1.27;;;7.80;99.90;;;;;;5031049;28;20245;-61
2023/11/03 02:30:01;;;;;;;2.97;1.37;;;7.70;99.90;;;;;;5031033;28;20268;-61
2023/11/03 02:32:28;;;;;;;3.70;1.20;;;7.60;99.90;;;;;;5031290;28;20252;-61
2023/11/03 02:34:55;;;;;;;4.80;1.40;;;7.60;99.90;;;;;;5031186;28;20279;-62
2023/11/03 02:37:22;;;;;;;3.57;1.20;;;7.50;99.90;;;;;;5031446;28;20711;-61
2023/11/03 02:39:48;;;;;;;2.67;1.17;;;7.50;99.90;;;;;;5031195;28;20217;-61
2023/11/03 02:42:17;;;;;;;2.93;1.20;;;7.40;99.90;;;;;;5030779;28;20213;-61
2023/11/03 02:44:44;;;;;;;4.77;1.20;;;7.40;99.90;;;;;;5031075;28;20261;-61
2023/11/03 02:47:10;;;;;;;4.37;1.00;;;7.40;99.90;;;;;;5033963;28;20206;-61
2023/11/03 02:49:37;;;;;;;3.60;1.13;;;7.40;99.90;;;;;;5035174;28;20202;-60
2023/11/03 02:52:04;;;;;;;3.93;1.20;;;7.40;99.90;;;;;;5034720;28;20210;-61
2023/11/03 02:54:31;;;;;;;3.40;1.23;;;7.30;99.90;;;;;;5035073;28;20230;-61
2023/11/03 02:56:58;;;;;;;3.13;1.07;;;7.30;99.90;;;;;;5034837;28;20738;-61
2023/11/03 02:59:26;;;;;;;2.97;1.00;;;7.20;99.90;;;;;;5026961;28;20202;-61
2023/11/03 03:01:53;;;;;;;3.00;1.20;;;7.20;99.90;;;;;;5034730;28;20221;-61
2023/11/03 03:04:19;;;;;;;3.10;1.10;;;7.20;99.90;;;;;;5034872;28;20222;-61
2023/11/03 03:06:46;;;;;;;2.80;1.10;;;7.10;99.90;;;;;;5034750;28;20210;-61
2023/11/03 03:09:13;;;;;;;4.43;1.50;;;7.20;99.90;;;;;;5034529;28;20222;-62
2023/11/03 03:11:40;;;;;;;3.30;1.43;;;7.10;99.90;;;;;;5034629;28;20236;-62
2023/11/03 03:14:08;;;;;;;3.90;1.27;;;7.10;99.90;;;;;;5034481;28;20226;-62
2023/11/03 03:16:37;;;;;;;2.67;1.13;;;7.10;99.90;;;;;;5034687;28;20206;-61
2023/11/03 03:19:05;;;;;;;1.80;0.87;;;7.00;99.90;;;;;;5034456;28;20640;-61
2023/11/03 03:21:32;;;;;;;8.10;1.40;;;7.00;99.90;;;;;;5034476;28;20210;-60
2023/11/03 03:23:59;;;;;;;5.73;1.40;;;6.90;99.90;;;;;;5034254;28;20232;-61
2023/11/03 03:26:26;;;;;;;3.50;1.27;;;6.90;99.90;;;;;;5026331;28;20211;-61
2023/11/03 03:28:53;;;;;;;3.90;1.30;;;6.90;99.90;;;;;;5034279;28;20312;-61
2023/11/03 03:31:19;;;;;;;4.00;1.40;;;6.90;99.90;;;;;;5034225;28;20711;-61
2023/11/03 03:33:48;;;;;;;3.33;1.50;;;6.90;99.90;;;;;;5034469;28;20237;-61
2023/11/03 03:36:15;;;;;;;4.10;1.00;;;6.90;99.90;;;;;;5034252;28;20293;-60
2023/11/03 03:38:41;;;;;;;1.20;1.10;;;7.00;99.90;;;;;;5034188;28;20292;-61
2023/11/03 03:41:12;;;;;;;4.60;1.17;;;6.90;99.90;;;;;;5034228;28;20718;-60
2023/11/03 03:43:39;;;;;;;7.73;1.37;;;7.00;99.90;;;;;;5034097;28;20305;-61
2023/11/03 03:46:06;;;;;;;1.33;0.80;;;7.00;99.90;;;;;;5034066;28;20585;-60
2023/11/03 03:48:33;;;;;;;2.03;1.03;;;7.10;99.90;;;;;;5033872;28;20224;-61
2023/11/03 03:51:01;;;;;;;3.20;0.97;;;7.20;99.90;;;;;;5034318;28;20629;-61
2023/11/03 03:53:29;;;;;;;2.87;1.13;;;7.20;99.90;;;;;;5026226;28;20225;-61
2023/11/03 03:55:55;;;;;;;4.27;1.07;;;7.10;99.90;;;;;;5034394;28;20264;-61
2023/11/03 03:58:22;;;;;;;4.27;1.60;;;6.90;99.90;;;;;;5033366;28;20206;-61
2023/11/03 04:00:49;;;;;;;3.57;1.63;;;6.90;99.90;;;;;;5033891;28;20680;-61
2023/11/03 04:03:16;;;;;;;5.30;2.40;;;7.00;99.90;;;;;;5033560;28;20237;-61
2023/11/03 04:05:43;;;;;;;3.23;1.50;;;7.20;99.90;;;;;;5034210;28;20214;-61
2023/11/03 04:08:11;;;;;;;2.87;1.27;;;7.40;99.90;;;;;;5033507;28;20226;-61
2023/11/03 04:10:38;;;;;;;2.77;1.17;;;7.50;99.90;;;;;;5034529;28;20293;-61
2023/11/03 04:13:04;;;;;;;3.10;1.40;;;7.60;99.90;;;;;;5034037;28;20691;-61
2023/11/03 04:15:31;;;;;;;2.87;0.90;;;7.80;99.90;;;;;;5076343;22;20233;-56
2023/11/03 04:17:58;;;;;;;2.73;1.30;;;7.90;99.90;;;;;;5053123;28;20205;-56
2023/11/03 04:20:24;;;;;;;3.53;1.10;;;7.90;99.90;;;;;;5053218;28;20209;-56
2023/11/03 04:22:51;;;;;;;5.67;3.53;;;7.90;99.90;;;;;;5053073;28;20317;-56
2023/11/03 04:25:20;;;;;;;5.43;1.60;;;7.90;99.90;;;;;;5044894;28;20230;-56
2023/11/03 04:27:46;;;;;;;3.83;1.53;;;8.00;99.90;;;;;;5044736;28;20202;-56
2023/11/03 04:30:14;;;;;;;4.10;1.90;;;8.00;99.90;;;;;;5043151;28;20218;-56
2023/11/03 04:32:41;;;;;;;5.90;2.33;;;8.20;99.90;;;;;;5041100;28;20214;-56
2023/11/03 04:35:08;;;;;;;4.17;2.47;;;8.30;99.90;;;;;;5042021;28;20229;-56
2023/11/03 04:37:35;;;;;;;13.37;6.03;;;8.50;99.90;;;;;;5044833;28;20197;-56
2023/11/03 04:40:03;;;;;;;14.60;7.43;;;8.60;99.90;;;;;;5044499;28;20586;-56
2023/11/03 04:42:31;;;;;;;4.70;2.10;;;8.60;99.90;;;;;;5033021;28;20671;-57
2023/11/03 04:44:58;;;;;;;5.73;1.67;;;8.70;99.90;;;;;;5041161;28;20641;-57
2023/11/03 04:47:26;;;;;;;5.70;2.00;;;8.70;99.90;;;;;;5043813;28;20292;-56
2023/11/03 04:49:52;;;;;;;4.40;1.73;;;8.80;99.90;;;;;;5044585;28;20717;-57
2023/11/03 04:52:21;;;;;;;3.33;1.77;;;8.80;99.90;;;;;;5041953;28;20210;-56
2023/11/03 04:54:47;;;;;;;5.77;2.50;;;8.90;99.90;;;;;;5041023;28;20613;-56
2023/11/03 04:57:16;;;;;;;4.10;1.50;;;9.00;99.90;;;;;;5042499;28;20217;-58
2023/11/03 04:59:44;;;;;;;2.57;1.30;;;9.00;99.90;;;;;;5044327;28;20201;-55
2023/11/03 05:02:11;;;;;;;6.43;2.60;;;9.10;99.90;;;;;;5042886;28;20206;-56
2023/11/03 05:04:38;;;;;;;8.10;2.80;;;9.10;99.90;;;;;;5040784;28;20668;-56
2023/11/03 05:07:05;;;;;;;3.20;1.70;;;9.20;99.90;;;;;;5041066;28;20289;-58
2023/11/03 05:09:32;;;;;;;4.77;1.30;;;9.40;99.90;;;;;;5043127;28;20225;-56
2023/11/03 05:11:58;;;;;;;3.27;1.23;;;9.40;99.90;;;;;;5043789;28;20292;-56
2023/11/03 05:14:25;;;;;;;6.07;1.93;;;9.40;99.90;;;;;;5040508;28;20229;-56
2023/11/03 05:16:53;;;;;;;8.70;3.23;;;9.50;99.90;;;;;;5040544;28;20703;-57
2023/11/03 05:19:20;;;;;;;3.00;1.40;;;9.50;99.90;;;;;;5042493;28;20203;-56
2023/11/03 05:21:46;;;;;;;5.83;2.80;;;9.60;99.90;;;;;;5043664;28;20267;-56
2023/11/03 05:24:13;;;;;;;2.40;1.30;;;9.60;99.90;;;;;;5042147;28;20256;-55
2023/11/03 05:26:41;;;;;;;3.87;1.80;;;9.70;99.90;;;;;;5040636;28;20209;-56
2023/11/03 05:29:08;;;;;;;7.67;1.73;;;9.70;99.90;;;;;;5040648;28;20222;-55
2023/11/03 05:31:35;;;;;;;4.30;1.97;;;9.60;99.90;;;;;;5043526;28;20203;-55
2023/11/03 05:34:03;;;;;;;4.43;1.90;;;9.70;99.90;;;;;;5043499;28;20766;-56
2023/11/03 05:36:30;;;;;;;6.67;2.63;;;9.80;99.90;;;;;;5032265;28;20198;-56
2023/11/03 05:38:57;;;;;;;4.03;1.70;;;9.90;99.90;;;;;;5040036;28;20233;-56
2023/11/03 05:41:24;;;;;;;7.73;1.80;;;10.00;99.90;;;;;;5042326;28;20209;-56
2023/11/03 05:43:51;;;;;;;4.73;1.80;;;10.00;99.90;;;;;;5043580;28;20316;-58
2023/11/03 05:46:18;;;;;;;4.00;1.43;;;10.10;99.90;;;;;;5041395;28;20232;-57
2023/11/03 05:48:44;;;;;;;5.47;2.33;;;10.10;99.90;;;;;;5039894;28;20605;-57
2023/11/03 05:51:12;;;;;;;3.00;1.73;;;10.20;99.90;;;;;;5040827;28;20593;-56
2023/11/03 05:53:39;;;;;;;4.43;1.30;;;10.20;99.90;;;;;;5042853;28;20275;-56
2023/11/03 05:56:06;;;;;;;6.50;3.97;;;10.10;99.90;;;;;;5042718;28;20205;-56
2023/11/03 05:58:33;;;;;;;4.37;1.80;;;10.20;99.90;;;;;;5039601;28;20201;-55
2023/11/03 06:01:00;;;;;;;8.10;2.63;;;10.20;99.90;;;;;;5040252;28;20206;-57
2023/11/03 06:03:26;;;;;;;5.77;2.37;;;10.30;99.90;;;;;;5042213;28;20704;-56
2023/11/03 06:05:53;;;;;;;6.40;2.30;;;10.30;99.90;;;;;;5042875;28;20560;-56
2023/11/03 06:08:22;;;;;;;3.50;1.37;;;10.40;99.90;;;;;;5040658;28;20225;-56
2023/11/03 06:10:50;;;;;;;5.43;2.97;;;10.30;99.90;;;;;;5039356;28;20221;-56
2023/11/03 06:13:17;;;;;;;6.73;3.00;;;10.40;99.90;;;;;;5041068;28;20516;-56
2023/11/03 06:15:44;;;;;;;9.67;5.83;;;10.50;99.90;;;;;;5042545;28;20670;-57
2023/11/03 06:18:11;;;;;;;7.37;3.13;;;10.50;99.90;;;;;;5042265;28;20308;-57
2023/11/03 06:20:39;;;;;;;3.90;1.93;;;10.50;99.90;;;;;;5039128;28;20275;-57
2023/11/03 06:23:06;;;;;;;5.30;1.70;;;10.50;99.90;;;;;;5039040;28;20221;-56
2023/11/03 06:25:34;;;;;;;4.67;1.60;;;10.60;99.90;;;;;;5042946;28;20339;-56
2023/11/03 06:28:00;;;;;;;6.07;1.50;;;10.60;99.90;;;;;;5042710;28;20205;-57
2023/11/03 06:30:27;;;;;;;4.00;1.50;;;10.70;99.90;;;;;;5039447;28;20228;-56
2023/11/03 06:32:54;;;;;;;7.87;1.80;;;10.70;99.90;;;;;;5039344;28;20202;-56
2023/11/03 06:35:21;;;;;;;4.70;1.33;;;10.70;99.90;;;;;;5041001;28;20232;-56
2023/11/03 06:37:48;;;;;;;6.07;1.40;;;10.70;99.90;;;;;;5042579;28;20218;-57
2023/11/03 06:40:15;;;;;;;4.67;1.67;;;10.70;99.90;;;;;;5042085;28;20208;-57
2023/11/03 06:42:43;;;;;;;2.03;1.50;;;10.70;99.90;;;;;;5039363;28;20206;-56
2023/11/03 06:45:10;;;;;;;4.20;1.70;;;10.70;99.90;;;;;;5039543;28;20234;-57
2023/11/03 06:47:37;;;;;;;2.87;0.93;;;10.70;99.90;;;;;;5042876;28;20202;-57
2023/11/03 06:50:05;;;;;;;2.20;1.17;;;10.80;99.90;;;;;;5042512;28;20236;-57
2023/11/03 06:52:32;;;;;;;3.83;1.20;;;10.90;99.90;;;;;;5042326;28;20202;-57
2023/11/03 06:54:58;;;;;;;2.80;1.33;;;11.00;99.90;;;;;;5042934;28;20229;-57
2023/11/03 06:57:25;;;;;;;4.03;1.33;;;11.00;99.90;;;;;;5039728;28;20209;-57
2023/11/03 06:59:53;;;;;;;4.03;1.40;;;11.00;99.90;;;;;;5039079;28;20234;-56
2023/11/03 07:02:20;;;;;;;4.17;1.60;;;11.00;99.90;;;;;;5040427;28;20209;-57
2023/11/03 07:04:47;;;;;;;3.47;1.30;;;11.10;99.90;;;;;;5042319;28;20225;-56
2023/11/03 07:07:14;;;;;;;2.87;1.30;;;11.10;99.90;;;;;;5041496;28;20206;-57
2023/11/03 07:09:40;;;;;;;6.47;1.60;;;11.20;99.90;;;;;;5038983;28;20218;-57
2023/11/03 07:12:07;;;;;;;3.30;1.27;;;11.20;99.90;;;;;;5038801;28;20206;-57
2023/11/03 07:14:35;;;;;;;4.23;1.47;;;11.30;99.90;;;;;;5042033;28;20226;-57
2023/11/03 07:17:03;;;;;;;3.27;1.47;;;11.30;99.90;;;;;;5042366;28;20244;-57
2023/11/03 07:19:30;;;;;;;6.03;1.80;;;11.30;99.90;;;;;;5038919;28;20249;-57
2023/11/03 07:21:57;;;;;;;3.37;1.73;;;11.20;99.90;;;;;;5038923;28;20214;-57
2023/11/03 07:24:23;;;;;;;4.43;1.27;;;11.30;99.90;;;;;;5040878;28;20256;-59
2023/11/03 07:26:50;;;;;;;5.80;1.40;;;11.30;99.90;;;;;;5042476;28;20217;-56
2023/11/03 07:29:17;;;;;;;5.20;1.53;;;11.30;99.90;;;;;;5040597;28;20714;-57
2023/11/03 07:31:44;;;;;;;3.47;1.37;;;11.20;99.90;;;;;;5039367;28;20245;-56
2023/11/03 07:34:12;;;;;;;3.97;1.40;;;11.20;99.90;;;;;;5043313;28;20280;-56
2023/11/03 07:36:40;;;;;;;5.07;1.87;;;11.10;99.90;;;;;;5045949;28;20690;-56
2023/11/03 07:39:07;;;;;;;3.33;1.70;;;11.10;99.90;;;;;;5045867;28;20223;-56
2023/11/03 07:41:36;;;;;;;5.23;1.60;;;11.00;99.90;;;;;;5034226;28;20242;-56
2023/11/03 07:44:02;;;;;;;5.33;1.30;;;11.00;99.90;;;;;;5041942;28;20233;-55
2023/11/03 07:46:30;;;;;;;3.70;1.27;;;11.00;99.90;;;;;;5045114;28;20208;-56
2023/11/03 07:48:57;;;;;;;5.67;1.73;;;11.00;99.90;;;;;;5045864;28;20693;-56
2023/11/03 07:51:25;;;;;;;3.77;1.30;;;11.10;99.90;;;;;;5043300;28;20566;-56
2023/11/03 07:53:52;;;;;;;4.20;1.43;;;11.30;99.90;;;;;;5042457;28;20233;-56
2023/11/03 07:56:18;;;;;;;6.03;1.70;;;11.30;99.90;;;;;;5043450;28;20595;-57
2023/11/03 07:58:45;;;;;;;5.70;1.40;;;11.40;99.90;;;;;;5045208;28;20209;-56
2023/11/03 08:01:13;;;;;;;3.00;1.07;;;11.50;99.90;;;;;;5044923;28;20209;-58
2023/11/03 08:03:39;;;;;;;3.67;1.20;;;11.50;99.90;;;;;;5041858;28;20623;-56
2023/11/03 08:06:06;;;;;;;8.13;1.30;;;11.50;99.90;;;;;;5041851;28;20702;-56
2023/11/03 08:08:35;;;;;;;2.83;1.30;;;11.50;99.90;;;;;;5045112;28;20197;-56
2023/11/03 08:11:03;;;;;;;3.67;1.23;;;11.60;99.90;;;;;;5045152;28;20225;-57
2023/11/03 08:13:30;;;;;;;7.13;1.70;;;11.60;99.90;;;;;;5041952;28;20256;-57
2023/11/03 08:15:57;;;;;;;7.27;1.30;;;11.60;99.90;;;;;;5042010;28;20210;-56
2023/11/03 08:18:24;;;;;;;3.63;1.60;;;11.70;99.90;;;;;;5043456;28;20676;-57
2023/11/03 08:20:51;;;;;;;9.43;4.77;;;11.80;99.90;;;;;;5045334;28;20205;-56
2023/11/03 08:23:20;;;;;;;4.20;2.10;;;11.90;99.90;;;;;;5043393;28;20209;-56
2023/11/03 08:25:48;;;;;;;4.50;1.87;;;11.90;99.90;;;;;;5041311;28;20260;-56
2023/11/03 08:28:15;;;;;;;3.80;1.40;;;12.00;99.90;;;;;;5041922;28;20680;-57
2023/11/03 08:30:42;;;;;;;2.43;1.57;;;12.10;99.90;;;;;;5044725;28;20303;-56
2023/11/03 08:33:09;;;;;;;4.97;1.80;;;12.10;99.90;;;;;;5044690;28;20697;-57
2023/11/03 08:35:36;;;;;;;7.07;2.60;;;12.20;99.90;;;;;;5033543;28;20245;-56
2023/11/03 08:38:05;;;;;;;4.13;2.03;;;12.20;99.90;;;;;;5041559;28;20206;-56
2023/11/03 08:40:31;;;;;;;4.53;1.80;;;12.30;99.90;;;;;;5044335;28;20754;-56
2023/11/03 08:43:00;;;;;;;5.97;1.90;;;12.30;99.90;;;;;;5044269;28;20209;-56
2023/11/03 08:45:27;;;;;;;7.30;1.80;;;12.50;99.90;;;;;;5042048;28;20299;-55
2023/11/03 08:47:54;;;;;;;6.10;1.80;;;12.60;99.90;;;;;;5041017;28;20276;-56
2023/11/03 08:50:22;;;;;;;3.80;1.50;;;12.70;99.90;;;;;;5042667;28;20249;-57
2023/11/03 08:52:48;;;;;;;3.67;1.40;;;12.80;99.90;;;;;;5044155;28;20256;-56
2023/11/03 08:55:16;;;;;;;3.77;1.80;;;13.00;99.90;;;;;;5043373;28;20232;-56
2023/11/03 08:57:43;;;;;;;6.33;2.00;;;13.10;99.90;;;;;;5041594;28;20210;-56
2023/11/03 09:00:15;;;;;;;3.80;2.03;;;13.10;99.90;;;;;;5041533;28;20214;-56
2023/11/03 09:02:43;;;;;;;2.70;1.37;;;13.20;99.90;;;;;;5033473;28;20580;-56
2023/11/03 09:05:11;;;;;;;3.53;1.23;;;13.20;99.90;;;;;;5040735;28;20237;-59
2023/11/03 09:07:38;;;;;;;1.60;1.13;;;13.30;99.90;;;;;;5032807;28;20298;-56
2023/11/03 09:10:07;;;;;;;3.97;1.27;;;13.50;99.90;;;;;;5040804;28;20233;-55
2023/11/03 09:12:34;;;;;;;2.73;1.07;;;13.60;99.90;;;;;;5043385;28;20758;-56
2023/11/03 09:15:03;;;;;;;2.53;1.30;;;13.60;99.90;;;;;;5043634;28;20336;-55
2023/11/03 09:17:31;;;;;;;1.77;1.07;;;13.70;99.90;;;;;;5040987;28;20710;-55
2023/11/03 09:19:59;;;;;;;2.53;1.20;;;13.60;99.90;;;;;;5040317;28;20209;-56
2023/11/03 09:22:26;;;;;;;5.40;1.80;;;13.60;99.90;;;;;;5041756;28;20298;-55
2023/11/03 09:24:56;;;;;;;3.03;1.50;;;13.50;99.90;;;;;;5043642;28;20236;-56
2023/11/03 09:27:23;;;;;;;3.87;1.20;;;13.50;99.90;;;;;;5041962;28;20263;-56
2023/11/03 09:29:49;;;;;;;5.63;1.50;;;13.60;99.90;;;;;;5040755;28;20237;-56
2023/11/03 09:32:17;;;;;;;4.93;1.50;;;13.60;99.90;;;;;;5040488;28;20202;-56
2023/11/03 09:34:46;;;;;;;2.83;1.30;;;13.70;99.90;;;;;;5043154;28;20261;-56
2023/11/03 09:37:13;;;;;;;4.33;1.37;;;13.80;99.90;;;;;;5043712;28;20293;-56
2023/11/03 09:39:42;;;;;;;3.30;1.00;;;13.90;99.90;;;;;;5040242;28;20198;-57
2023/11/03 09:42:11;;;;;;;4.37;1.50;;;13.90;99.90;;;;;;5040033;28;20217;-56
2023/11/03 09:44:38;;;;;;;5.80;1.73;;;14.00;99.90;;;;;;5031973;28;20551;-56
2023/11/03 09:47:06;;;;;;;3.70;1.10;;;14.00;99.90;;;;;;5040010;28;20210;-56
2023/11/03 09:49:34;;;;;;;3.07;1.30;;;14.10;99.90;;;;;;5042464;28;20241;-57
2023/11/03 09:52:05;;;;;;;4.63;1.10;;;14.20;99.90;;;;;;5043757;28;20201;-56
2023/11/03 09:54:33;;;;;;;3.10;1.10;;;14.20;99.90;;;;;;5040325;28;21398;-56
2023/11/03 09:57:01;;;;;;;3.57;0.90;;;14.40;99.90;;;;;;5039824;28;20256;-56
2023/11/03 09:59:31;;;;;;;2.57;1.27;;;14.40;99.90;;;;;;5041855;28;20209;-57
2023/11/03 10:01:58;;;;;;;2.73;0.90;;;14.40;99.90;;;;;;5042570;28;20212;-55
2023/11/03 10:04:26;;;;;;;3.07;1.03;;;14.50;99.90;;;;;;5041466;28;20228;-56
2023/11/03 10:06:53;;;;;;;2.40;1.00;;;14.60;99.90;;;;;;5039766;28;20249;-58
2023/11/03 10:09:23;;;;;;;4.73;1.10;;;14.60;99.90;;;;;;5040678;28;20236;-55
2023/11/03 10:11:49;;;;;;;1.50;0.87;;;14.50;99.90;;;;;;5042741;28;20868;-58
2023/11/03 10:14:16;;;;;;;4.60;2.50;;;14.60;99.90;;;;;;5054010;22;20276;-58
2023/11/03 10:16:44;;;;;;;3.60;1.10;;;14.60;99.90;;;;;;5043579;28;20205;-60
2023/11/03 10:19:10;;;;;;;4.60;1.43;;;14.60;99.90;;;;;;5043456;28;20292;-59
2023/11/03 10:21:39;;;;;;;2.23;0.93;;;14.50;99.90;;;;;;5039713;28;20201;-59
2023/11/03 10:24:06;;;;;;;1.63;0.70;;;14.50;99.90;;;;;;5031998;28;20239;-59
2023/11/03 10:26:35;;;;;;;2.27;0.90;;;14.60;99.90;;;;;;5042728;28;20259;-59
2023/11/03 10:29:04;;;;;;;3.73;1.00;;;14.60;99.90;;;;;;5043350;28;20205;-59
2023/11/03 10:31:31;;;;;;;5.03;0.87;;;14.60;99.90;;;;;;5040886;28;20218;-59
2023/11/03 10:33:58;;;;;;;3.87;0.80;;;14.70;99.90;;;;;;5031358;28;20206;-60
2023/11/03 10:36:26;;;;;;;1.40;0.60;;;14.70;99.90;;;;;;5048040;28;20293;-61
2023/11/03 10:38:54;;;;;;;1.87;0.83;;;14.50;99.90;;;;;;5031211;28;20225;-56
2023/11/03 10:41:21;;;;;;;1.27;0.70;;;14.60;99.90;;;;;;5040186;28;20237;-56
2023/11/03 10:43:57;;;;;;;1.57;0.70;;;14.70;99.90;;;;;;5042939;28;20249;-56
2023/11/03 10:46:33;;;;;;;2.43;0.80;;;14.80;99.90;;;;;;5041209;28;20292;-56
2023/11/03 10:49:11;;;;;;;1.43;0.70;;;14.70;99.90;;;;;;5039111;28;20208;-56
2023/11/03 10:51:41;;;;;;;2.10;0.70;;;14.80;99.90;;;;;;5030542;28;20841;-56
2023/11/03 10:54:17;;;;;;;1.90;0.80;;;14.70;99.90;;;;;;5031094;28;20240;-56
2023/11/03 10:56:46;;;;;;;2.20;0.87;;;14.80;99.90;;;;;;5032003;28;20297;-57
2023/11/03 10:59:16;;;;;;;4.43;0.90;;;14.90;99.90;;;;;;5031134;28;20289;-56
2023/11/03 11:01:49;;;;;;;1.53;0.90;;;15.00;99.90;;;;;;5031591;28;20210;-56
2023/11/03 11:04:21;;;;;;;3.40;0.73;;;15.10;99.90;;;;;;5030665;28;20309;-56
2023/11/03 11:06:54;;;;;;;2.37;0.70;;;15.10;99.90;;;;;;5040047;28;20281;-56
2023/11/03 11:09:32;;;;;;;7.40;0.90;;;15.20;99.90;;;;;;5034734;28;20736;-56
2023/11/03 11:12:02;;;;;;;1.20;0.30;;;15.40;99.90;;;;;;5042865;28;20285;-56
2023/11/03 11:14:36;;;;;;;1.77;0.60;;;15.50;99.90;;;;;;5034562;28;20654;-56
2023/11/03 11:17:04;;;;;;;0.57;0.47;;;15.60;99.90;;;;;;5042806;28;20208;-57
2023/11/03 11:19:43;;;;;;;2.88;0.60;;;15.70;99.90;;;;;;5034579;28;20252;-56
2023/11/03 11:22:14;;;;;;;2.58;0.63;;;15.80;99.90;;;;;;5042999;28;20589;-56
2023/11/03 11:24:42;;;;;;;1.75;0.50;;;15.80;99.90;;;;;;5034688;28;20794;-57
2023/11/03 11:27:13;;;;;;;4.93;0.70;;;15.80;99.90;;;;;;5043270;28;20653;-60
2023/11/03 11:29:42;;;;;;;2.85;2.28;;;15.80;99.90;;;;;;5051095;28;20207;-58
2023/11/03 11:32:11;;;;;;;3.87;0.80;;;15.80;99.90;;;;;;5042440;28;20222;-57
2023/11/03 11:34:39;;;;;;;1.37;0.70;;;15.70;99.90;;;;;;5034092;28;20675;-56
2023/11/03 11:37:24;;;;;;;0.93;0.73;;;15.70;99.90;;;;;;5042395;28;20233;-59
2023/11/03 11:39:52;;;;;;;0.73;0.50;;;15.60;99.90;;;;;;5035399;28;20684;-59
2023/11/03 11:42:20;;;;;;;1.10;0.50;;;15.60;99.90;;;;;;5033991;28;20202;-59
2023/11/03 11:44:51;;;;;;;2.17;1.17;;;15.40;99.90;;;;;;5042378;28;20245;-59
2023/11/03 11:47:19;;;;;;;4.10;0.70;;;15.60;99.90;;;;;;5034099;28;20264;-59
2023/11/03 11:49:47;;;;;;;1.45;0.77;;;15.50;99.90;;;;;;5042038;28;20309;-60
2023/11/03 11:52:15;;;;;;;0.90;0.57;;;15.50;99.90;;;;;;5033689;28;20602;-59
2023/11/03 11:54:42;;;;;;;1.43;0.70;;;15.50;99.90;;;;;;5034004;28;20254;-59
2023/11/03 11:57:09;;;;;;;0.83;0.53;;;15.60;99.90;;;;;;5042014;28;20202;-58
2023/11/03 11:59:39;;;;;;;1.33;0.70;;;15.60;99.90;;;;;;5033653;28;20316;-60
2023/11/03 12:02:08;;;;;;;3.15;1.35;;;15.40;99.90;;;;;;5033330;28;20203;-60
2023/11/03 12:04:36;;;;;;;1.30;0.80;;;15.20;99.90;;;;;;5033652;28;20254;-60
2023/11/03 12:07:05;;;;;;;1.90;0.73;;;15.20;99.90;;;;;;5033547;28;20602;-60
2023/11/03 12:09:37;;;;;;;1.88;0.75;;;15.30;99.90;;;;;;5043613;28;20209;-59
2023/11/03 12:12:04;;;;;;;1.90;0.50;;;15.40;99.90;;;;;;5044830;28;20237;-59
2023/11/03 12:14:29;;;;;;;2.07;1.10;;;15.50;99.90;;;;;;5042447;28;20225;-58
2023/11/03 12:16:56;;;;;;;2.67;0.70;;;15.50;99.90;;;;;;5041170;28;20221;-60
2023/11/03 12:19:24;;;;;;;1.40;0.57;;;15.40;99.90;;;;;;5032709;28;20214;-59
2023/11/03 12:21:52;;;;;;;1.87;0.70;;;15.40;99.90;;;;;;5041754;28;20199;-58
2023/11/03 12:24:19;;;;;;;1.83;1.20;;;15.40;99.90;;;;;;5032961;28;20230;-57
2023/11/03 12:26:45;;;;;;;2.43;0.90;;;15.30;99.90;;;;;;5040899;28;20210;-59
2023/11/03 12:29:31;;;;;;;0.83;0.40;;;15.20;99.90;;;;;;5033166;28;20602;-58
2023/11/03 12:32:00;;;;;;;0.90;0.33;;;15.10;99.90;;;;;;5034929;28;20230;-62
2023/11/03 12:34:28;;;;;;;0.80;0.50;;;14.90;99.90;;;;;;5042476;28;20234;-60
2023/11/03 12:36:56;;;;;;;1.17;0.60;;;14.90;99.90;;;;;;5044812;28;20591;-58
2023/11/03 12:39:23;;;;;;;0.60;0.30;;;14.90;99.90;;;;;;5043062;28;20606;-60
2023/11/03 12:42:04;;;;;;;4.37;0.83;;;15.00;99.90;;;;;;5032706;28;20206;-60
2023/11/03 12:44:31;;;;;;;0.93;0.40;;;15.10;99.90;;;;;;5042834;28;20622;-60
2023/11/03 12:47:00;;;;;;;1.67;0.60;;;15.10;99.90;;;;;;5044569;28;20210;-60
2023/11/03 12:49:29;;;;;;;3.10;1.30;;;15.10;99.90;;;;;;5043132;28;20244;-60
2023/11/03 12:51:56;;;;;;;1.80;0.90;;;15.10;99.90;;;;;;5032259;28;20283;-60